Time;durP1;ratioP1;P1;durP2;ratioP2;P2;SDS_P1;SDS_P2;PMS_P1;PMS_P2;Temp;Humidity;BMP_temperature;BMP_pressure;BME280_temperature;BME280_humidity;BME280_pressure;Samples;Min_cycle;Max_cycle;Signal;HPM_P1;HPM_P2
2023/08/25 00:01:24;;;;;;;0.90;0.90;;;29.20;52.50;;;;;;5130612;27;45374;-74
2023/08/25 00:03:50;;;;;;;2.03;1.23;;;29.20;52.50;;;;;;5130710;27;45408;-74
2023/08/25 00:06:17;;;;;;;2.15;1.15;;;29.20;52.50;;;;;;5130820;27;45264;-74
2023/08/25 00:08:44;;;;;;;2.05;1.10;;;29.20;52.50;;;;;;5130855;27;45292;-74
2023/08/25 00:11:11;;;;;;;1.05;0.93;;;29.20;52.50;;;;;;5130451;27;46379;-74
2023/08/25 00:13:38;;;;;;;1.58;1.10;;;29.10;52.30;;;;;;5130611;27;45374;-73
2023/08/25 00:16:07;;;;;;;2.55;1.02;;;29.10;53.00;;;;;;5130918;27;45311;-74
2023/08/25 00:18:33;;;;;;;1.55;1.00;;;29.10;52.40;;;;;;5130823;27;45428;-73
2023/08/25 00:21:00;;;;;;;1.23;1.10;;;29.10;52.40;;;;;;5130277;27;46647;-74
2023/08/25 00:23:27;;;;;;;0.95;0.95;;;29.10;52.50;;;;;;5128323;27;45235;-74
2023/08/25 00:25:54;;;;;;;1.38;1.10;;;29.10;52.50;;;;;;5108953;27;45362;-74
2023/08/25 00:28:21;;;;;;;2.15;1.20;;;29.10;52.50;;;;;;5109913;27;45372;-74
2023/08/25 00:30:48;;;;;;;1.20;1.10;;;29.00;53.10;;;;;;5109621;27;46649;-74
2023/08/25 00:33:17;;;;;;;0.88;0.88;;;29.00;52.50;;;;;;5109522;27;45182;-74
2023/08/25 00:35:43;;;;;;;1.08;0.98;;;29.00;52.60;;;;;;5109602;27;45301;-74
2023/08/25 00:38:10;;;;;;;1.33;1.02;;;29.00;52.50;;;;;;5109914;27;45389;-74
2023/08/25 00:40:37;;;;;;;1.05;1.05;;;29.00;52.70;;;;;;5109250;27;46371;-74
2023/08/25 00:43:04;;;;;;;2.80;1.20;;;29.00;52.60;;;;;;5109464;27;45219;-74
2023/08/25 00:45:31;;;;;;;1.75;0.90;;;28.90;52.40;;;;;;5109398;27;45311;-74
2023/08/25 00:47:58;;;;;;;1.17;1.08;;;28.90;52.70;;;;;;5109477;27;45297;-74
2023/08/25 00:50:26;;;;;;;1.20;1.15;;;28.90;52.50;;;;;;5109325;27;46352;-74
2023/08/25 00:52:53;;;;;;;0.95;0.95;;;28.90;52.60;;;;;;5109321;27;45374;-74
2023/08/25 00:55:20;;;;;;;1.35;1.10;;;28.90;52.50;;;;;;5109253;27;45311;-74
2023/08/25 00:57:47;;;;;;;1.13;0.93;;;28.90;52.70;;;;;;5109390;27;45284;-74
2023/08/25 01:00:14;;;;;;;1.20;1.10;;;28.90;53.20;;;;;;5108976;27;45636;-74
2023/08/25 01:02:41;;;;;;;1.17;1.08;;;28.80;52.50;;;;;;5108961;27;45316;-74
2023/08/25 01:05:08;;;;;;;1.10;1.00;;;28.80;52.60;;;;;;5109123;27;45415;-74
2023/08/25 01:07:37;;;;;;;1.00;0.98;;;28.80;52.70;;;;;;5108663;27;45298;-74
2023/08/25 01:10:04;;;;;;;1.75;1.40;;;28.80;52.60;;;;;;5107966;27;45600;-74
2023/08/25 01:12:36;;;;;;;1.23;1.10;;;28.80;52.50;;;;;;5108856;27;45304;-73
2023/08/25 01:15:04;;;;;;;1.23;1.13;;;28.80;52.60;;;;;;5109160;27;45263;-74
2023/08/25 01:17:34;;;;;;;1.67;1.13;;;28.80;52.60;;;;;;5109313;27;45593;-74
2023/08/25 01:20:06;;;;;;;1.30;1.20;;;28.70;53.10;;;;;;5108652;27;45315;-74
2023/08/25 01:22:34;;;;;;;1.00;0.90;;;28.70;52.60;;;;;;5109068;27;45334;-74
2023/08/25 01:25:23;;;;;;;1.80;1.20;;;28.70;52.60;;;;;;5124355;27;45300;-74
2023/08/25 01:27:50;;;;;;;1.38;1.27;;;28.70;52.60;;;;;;5129488;27;45472;-74
2023/08/25 01:30:17;;;;;;;1.25;1.15;;;28.60;52.60;;;;;;5128956;27;46401;-74
2023/08/25 01:32:45;;;;;;;1.25;1.15;;;28.70;52.60;;;;;;5129135;27;45319;-74
2023/08/25 01:35:14;;;;;;;1.25;1.15;;;28.70;52.70;;;;;;5129540;27;45167;-74
2023/08/25 01:37:43;;;;;;;1.83;1.20;;;28.70;52.70;;;;;;5129430;27;45578;-74
2023/08/25 01:40:15;;;;;;;1.48;1.38;;;28.70;52.70;;;;;;5128874;27;45276;-75
2023/08/25 01:42:42;;;;;;;1.23;1.10;;;28.60;53.20;;;;;;5129057;27;44696;-74
2023/08/25 01:45:09;;;;;;;2.53;1.00;;;28.60;53.40;;;;;;5129267;27;45318;-74
2023/08/25 01:47:36;;;;;;;1.25;1.20;;;28.60;52.70;;;;;;5129274;27;45484;-74
2023/08/25 01:50:03;;;;;;;1.20;1.10;;;28.60;52.80;;;;;;5129056;27;46299;-74
2023/08/25 01:52:30;;;;;;;1.10;1.10;;;28.60;52.70;;;;;;5128937;27;45452;-74
2023/08/25 01:54:56;;;;;;;1.30;1.20;;;28.60;52.80;;;;;;5129062;27;45515;-74
2023/08/25 01:57:25;;;;;;;1.25;1.10;;;28.60;52.70;;;;;;5128859;27;45215;-74
2023/08/25 01:59:51;;;;;;;2.13;1.10;;;28.50;52.60;;;;;;5128586;27;46338;-74
2023/08/25 02:02:18;;;;;;;1.92;0.98;;;28.50;52.70;;;;;;5128755;27;45215;-74
2023/08/25 02:04:45;;;;;;;1.08;1.00;;;28.50;52.70;;;;;;5129139;27;44759;-73
2023/08/25 02:07:12;;;;;;;1.20;1.10;;;28.50;52.60;;;;;;5128737;27;45336;-73
2023/08/25 02:09:39;;;;;;;4.72;1.10;;;28.50;52.90;;;;;;5128252;27;46335;-73
2023/08/25 02:12:06;;;;;;;1.90;1.02;;;28.50;52.80;;;;;;5127820;27;45352;-73
2023/08/25 02:14:34;;;;;;;1.38;1.27;;;28.50;52.70;;;;;;5126495;27;45309;-74
2023/08/25 02:17:01;;;;;;;1.20;0.98;;;28.50;52.70;;;;;;5129616;27;45483;-74
2023/08/25 02:19:28;;;;;;;2.20;1.20;;;28.40;52.70;;;;;;5128576;27;45507;-74
2023/08/25 02:21:55;;;;;;;1.25;1.15;;;28.40;52.70;;;;;;5128381;27;45265;-74
2023/08/25 02:24:22;;;;;;;1.20;1.10;;;28.40;52.70;;;;;;5118672;27;45260;-74
2023/08/25 02:26:49;;;;;;;1.30;1.20;;;28.40;52.70;;;;;;5107967;27;45330;-74
2023/08/25 02:29:16;;;;;;;1.45;1.30;;;28.40;52.70;;;;;;5107438;27;46642;-74
2023/08/25 02:31:44;;;;;;;2.90;1.20;;;28.40;52.60;;;;;;5107581;27;45508;-74
2023/08/25 02:34:11;;;;;;;3.95;1.38;;;28.40;52.90;;;;;;5107610;27;45341;-74
2023/08/25 02:36:37;;;;;;;1.75;1.25;;;28.40;52.70;;;;;;5107738;27;45344;-73
2023/08/25 02:39:04;;;;;;;2.28;1.30;;;28.40;52.70;;;;;;5107534;27;46309;-74
2023/08/25 02:41:31;;;;;;;1.63;1.52;;;28.30;52.70;;;;;;5107427;27;45374;-74
2023/08/25 02:43:58;;;;;;;1.45;1.10;;;28.30;52.80;;;;;;5107502;27;45341;-74
2023/08/25 02:46:25;;;;;;;2.45;1.20;;;28.30;52.80;;;;;;5107671;27;45179;-74
2023/08/25 02:48:53;;;;;;;1.20;1.10;;;28.30;52.80;;;;;;5107189;27;45211;-74
2023/08/25 02:51:20;;;;;;;1.05;0.95;;;28.30;53.00;;;;;;5107371;27;45289;-74
2023/08/25 02:53:46;;;;;;;1.38;1.27;;;28.30;52.80;;;;;;5107431;27;45453;-74
2023/08/25 02:56:13;;;;;;;1.85;1.48;;;28.30;52.70;;;;;;5106438;27;45370;-74
2023/08/25 02:58:40;;;;;;;1.83;1.35;;;28.30;52.70;;;;;;5106899;27;45294;-74
2023/08/25 03:01:11;;;;;;;1.48;0.90;;;28.30;52.80;;;;;;5107239;27;45253;-75
2023/08/25 03:03:38;;;;;;;1.23;1.13;;;28.30;52.70;;;;;;5107280;27;45402;-74
2023/08/25 03:06:06;;;;;;;1.50;1.40;;;28.30;52.90;;;;;;5107464;27;45340;-74
2023/08/25 03:08:33;;;;;;;1.27;1.08;;;28.20;52.80;;;;;;5107048;27;45223;-74
2023/08/25 03:11:02;;;;;;;1.30;1.13;;;28.20;52.80;;;;;;5106884;27;45374;-74
2023/08/25 03:13:29;;;;;;;1.15;1.10;;;28.20;52.70;;;;;;5107109;27;45295;-74
2023/08/25 03:15:56;;;;;;;1.15;1.08;;;28.20;52.70;;;;;;5106977;27;45304;-74
2023/08/25 03:18:23;;;;;;;1.90;1.30;;;28.20;52.70;;;;;;5106867;27;46381;-73
2023/08/25 03:20:51;;;;;;;0.82;0.82;;;28.20;52.90;;;;;;5106856;27;45397;-74
2023/08/25 03:23:19;;;;;;;1.50;1.40;;;28.20;52.70;;;;;;5107628;27;45416;-74
2023/08/25 03:25:46;;;;;;;2.45;1.30;;;28.20;52.70;;;;;;5127728;27;45394;-74
2023/08/25 03:28:13;;;;;;;1.40;1.30;;;28.10;52.70;;;;;;5127485;27;45289;-73
2023/08/25 03:30:40;;;;;;;1.65;1.48;;;28.10;52.70;;;;;;5130963;27;45272;-74
2023/08/25 03:33:07;;;;;;;1.98;1.23;;;28.10;52.70;;;;;;5131291;27;45424;-73
2023/08/25 03:35:34;;;;;;;1.20;1.10;;;28.10;52.70;;;;;;5131409;27;45370;-73
2023/08/25 03:38:01;;;;;;;1.30;1.20;;;28.10;52.70;;;;;;5130934;27;46663;-74
2023/08/25 03:40:29;;;;;;;1.20;1.10;;;28.10;52.70;;;;;;5131319;27;45225;-73
2023/08/25 03:42:56;;;;;;;1.65;1.42;;;28.10;52.80;;;;;;5130819;27;45295;-73
2023/08/25 03:45:22;;;;;;;1.98;1.20;;;28.10;52.80;;;;;;5130780;27;45377;-74
2023/08/25 03:47:49;;;;;;;2.22;1.35;;;28.10;52.80;;;;;;5130823;27;47478;-74
2023/08/25 03:50:16;;;;;;;1.45;1.05;;;28.10;52.90;;;;;;5130792;27;45334;-73
2023/08/25 03:52:44;;;;;;;1.15;1.10;;;28.00;52.90;;;;;;5131113;27;45381;-74
2023/08/25 03:55:10;;;;;;;1.38;1.27;;;28.00;52.80;;;;;;5131097;27;45472;-74
2023/08/25 03:57:39;;;;;;;1.95;1.30;;;28.00;52.90;;;;;;5130251;27;45384;-73
2023/08/25 04:00:07;;;;;;;2.25;1.23;;;28.00;52.80;;;;;;5132752;27;45302;-74
2023/08/25 04:02:34;;;;;;;1.10;1.08;;;28.00;53.40;;;;;;5130785;27;45127;-76
2023/08/25 04:05:01;;;;;;;2.53;1.30;;;28.00;52.70;;;;;;5131136;27;45471;-74
2023/08/25 04:07:28;;;;;;;1.23;1.13;;;27.90;52.70;;;;;;5130404;27;46725;-74
2023/08/25 04:09:55;;;;;;;1.15;1.08;;;27.90;52.70;;;;;;5131046;27;45334;-74
2023/08/25 04:12:22;;;;;;;1.40;1.25;;;27.90;52.70;;;;;;5130606;27;45315;-73
2023/08/25 04:14:50;;;;;;;1.90;1.23;;;27.90;52.70;;;;;;5130661;27;45406;-73
2023/08/25 04:17:17;;;;;;;1.25;1.10;;;27.90;52.70;;;;;;5130257;27;45342;-74
2023/08/25 04:19:44;;;;;;;2.08;1.10;;;27.90;52.70;;;;;;5130289;27;45315;-74
2023/08/25 04:22:10;;;;;;;2.35;1.23;;;27.90;52.70;;;;;;5130630;27;45274;-73
2023/08/25 04:24:37;;;;;;;1.42;1.30;;;27.90;52.70;;;;;;5118569;27;45474;-73
2023/08/25 04:27:04;;;;;;;1.48;1.35;;;27.80;52.60;;;;;;5109542;27;46730;-73
2023/08/25 04:29:31;;;;;;;1.48;1.05;;;27.80;52.60;;;;;;5108770;27;45276;-73
2023/08/25 04:31:59;;;;;;;2.72;1.17;;;27.80;52.60;;;;;;5109488;27;45394;-73
2023/08/25 04:34:26;;;;;;;1.58;1.30;;;27.80;53.20;;;;;;5109774;27;45372;-74
2023/08/25 04:36:53;;;;;;;3.28;1.30;;;27.80;52.80;;;;;;5109349;27;45384;-74
2023/08/25 04:39:20;;;;;;;1.30;1.20;;;27.80;52.80;;;;;;5109312;27;45322;-74
2023/08/25 04:41:46;;;;;;;1.42;1.00;;;27.80;52.80;;;;;;5108746;27;45199;-74
2023/08/25 04:44:15;;;;;;;1.50;1.23;;;27.70;52.70;;;;;;5109728;27;45647;-74
2023/08/25 04:46:42;;;;;;;1.30;1.00;;;27.70;52.90;;;;;;5108950;27;46951;-73
2023/08/25 04:49:10;;;;;;;1.38;1.10;;;27.70;52.90;;;;;;5109123;27;45199;-74
2023/08/25 04:51:37;;;;;;;1.20;1.10;;;27.70;52.80;;;;;;5109323;27;45354;-73
2023/08/25 04:54:04;;;;;;;1.80;1.40;;;27.70;52.90;;;;;;5109356;27;45532;-74
2023/08/25 04:56:31;;;;;;;1.27;1.17;;;27.70;52.90;;;;;;5108961;27;45355;-74
2023/08/25 04:58:58;;;;;;;1.17;1.13;;;27.70;52.90;;;;;;5109046;27;45318;-74
2023/08/25 05:01:24;;;;;;;1.52;1.25;;;27.70;53.50;;;;;;5109166;27;45352;-73
2023/08/25 05:03:51;;;;;;;1.52;1.20;;;27.70;52.80;;;;;;5109273;27;45387;-74
2023/08/25 05:06:19;;;;;;;1.38;1.27;;;27.70;52.70;;;;;;5108831;27;45694;-73
2023/08/25 05:08:47;;;;;;;4.25;1.60;;;27.70;52.80;;;;;;5109055;27;45245;-73
2023/08/25 05:11:14;;;;;;;1.95;1.20;;;27.70;52.80;;;;;;5109068;27;45330;-74
2023/08/25 05:13:40;;;;;;;2.13;1.20;;;27.70;53.00;;;;;;5109210;27;45561;-73
2023/08/25 05:16:08;;;;;;;1.50;1.40;;;27.60;52.90;;;;;;5107866;27;45452;-73
2023/08/25 05:18:35;;;;;;;1.48;1.23;;;27.60;52.90;;;;;;5108735;27;45339;-73
2023/08/25 05:21:02;;;;;;;1.80;1.50;;;27.60;53.00;;;;;;5108855;27;45276;-73
2023/08/25 05:23:30;;;;;;;1.50;1.27;;;27.60;52.90;;;;;;5111166;27;45306;-73
2023/08/25 05:25:57;;;;;;;1.33;1.10;;;27.60;52.90;;;;;;5129050;27;46411;-73
2023/08/25 05:28:24;;;;;;;2.70;1.50;;;27.60;52.90;;;;;;5129639;27;45423;-74
2023/08/25 05:30:51;;;;;;;2.20;1.30;;;27.60;52.90;;;;;;5129437;27;45125;-73
2023/08/25 05:33:18;;;;;;;1.10;1.00;;;27.60;53.00;;;;;;5129285;27;45453;-74
2023/08/25 05:35:44;;;;;;;1.25;1.20;;;27.60;53.00;;;;;;5128752;27;46720;-73
2023/08/25 05:38:11;;;;;;;1.23;1.10;;;27.60;53.00;;;;;;5129030;27;45495;-74
2023/08/25 05:40:39;;;;;;;1.25;1.15;;;27.60;53.60;;;;;;5129280;27;45373;-74
2023/08/25 05:43:07;;;;;;;1.30;1.20;;;27.60;53.00;;;;;;5129395;27;45195;-73
2023/08/25 05:45:33;;;;;;;2.25;1.20;;;27.60;53.00;;;;;;5128951;27;46675;-73
2023/08/25 05:48:01;;;;;;;1.50;1.40;;;27.60;53.10;;;;;;5128910;27;45266;-73
2023/08/25 05:50:27;;;;;;;1.25;1.15;;;27.60;53.00;;;;;;5128985;27;45232;-72
2023/08/25 05:52:54;;;;;;;1.40;1.20;;;27.60;53.00;;;;;;5129199;27;45284;-73
2023/08/25 05:55:21;;;;;;;2.85;1.08;;;27.60;53.30;;;;;;5128691;27;46395;-73
2023/08/25 05:57:49;;;;;;;1.75;1.17;;;27.50;53.00;;;;;;5128835;27;45234;-74
2023/08/25 06:00:17;;;;;;;2.10;1.35;;;27.50;53.10;;;;;;5128160;27;45427;-73
2023/08/25 06:02:44;;;;;;;2.03;1.27;;;27.60;53.20;;;;;;5128578;27;45361;-73
2023/08/25 06:05:11;;;;;;;1.40;1.30;;;27.50;53.20;;;;;;5128467;27;48296;-73
2023/08/25 06:07:37;;;;;;;1.25;1.05;;;27.50;53.20;;;;;;5128545;27;45171;-73
2023/08/25 06:10:05;;;;;;;1.20;1.10;;;27.50;53.20;;;;;;5126417;27;45475;-72
2023/08/25 06:12:32;;;;;;;3.85;1.50;;;27.50;53.30;;;;;;5109994;27;45484;-72
2023/08/25 06:15:00;;;;;;;3.13;1.98;;;27.50;54.40;;;;;;5124023;27;45300;-73
2023/08/25 06:17:27;;;;;;;4.28;2.83;;;27.50;55.50;;;;;;5127036;27;45264;-72
2023/08/25 06:19:53;;;;;;;3.58;1.90;;;27.40;56.20;;;;;;5128499;27;45257;-73
2023/08/25 06:22:21;;;;;;;5.28;2.35;;;27.40;56.30;;;;;;5127193;27;45362;-72
2023/08/25 06:24:48;;;;;;;4.53;1.70;;;27.40;56.60;;;;;;5128222;27;45357;-72
2023/08/25 06:27:15;;;;;;;5.38;1.88;;;27.40;57.00;;;;;;5128106;27;45386;-72
2023/08/25 06:29:42;;;;;;;3.15;1.90;;;27.40;57.00;;;;;;5123507;27;45224;-72
2023/08/25 06:32:15;;;;;;;4.93;2.25;;;27.40;57.20;;;;;;5128405;27;45297;-72
2023/08/25 06:34:42;;;;;;;2.55;2.00;;;27.40;57.40;;;;;;5128087;27;46660;-73
2023/08/25 06:37:10;;;;;;;3.20;2.10;;;27.40;57.40;;;;;;5128117;27;45279;-72
2023/08/25 06:39:36;;;;;;;4.25;2.22;;;27.40;57.50;;;;;;5127457;27;45309;-72
2023/08/25 06:42:05;;;;;;;1.63;1.52;;;27.40;57.70;;;;;;5127793;27;45949;-72
2023/08/25 06:44:32;;;;;;;3.67;1.80;;;27.30;57.60;;;;;;5125696;27;45514;-73
2023/08/25 06:46:58;;;;;;;2.72;1.73;;;27.30;57.80;;;;;;5127658;27;45347;-73
2023/08/25 06:49:27;;;;;;;5.80;2.08;;;27.30;57.40;;;;;;5127466;27;45318;-75
2023/08/25 06:51:53;;;;;;;2.83;1.83;;;27.40;57.30;;;;;;5127384;27;45399;-74
2023/08/25 06:54:21;;;;;;;3.38;2.00;;;27.30;57.00;;;;;;5126723;27;46630;-75
2023/08/25 06:56:48;;;;;;;4.20;2.10;;;27.40;56.90;;;;;;5125742;27;45822;-74
2023/08/25 06:59:15;;;;;;;3.08;1.77;;;27.40;56.70;;;;;;5124069;27;45613;-74
2023/08/25 07:01:42;;;;;;;2.35;1.83;;;27.40;56.60;;;;;;5125788;27;45336;-74
2023/08/25 07:04:09;;;;;;;2.88;1.77;;;27.40;56.60;;;;;;5126107;27;46745;-73
2023/08/25 07:06:37;;;;;;;1.75;1.65;;;27.30;56.50;;;;;;5119492;27;45457;-74
2023/08/25 07:09:04;;;;;;;2.88;1.40;;;27.30;56.50;;;;;;5124443;27;45400;-74
2023/08/25 07:11:30;;;;;;;2.00;1.80;;;27.30;56.30;;;;;;5127858;27;45306;-74
2023/08/25 07:13:58;;;;;;;3.13;1.83;;;27.30;56.50;;;;;;5127841;27;45351;-74
2023/08/25 07:16:26;;;;;;;3.92;2.40;;;27.30;56.40;;;;;;5126910;27;45404;-75
2023/08/25 07:18:52;;;;;;;4.50;1.90;;;27.30;56.40;;;;;;5126721;27;45271;-74
2023/08/25 07:21:19;;;;;;;2.58;1.98;;;27.30;56.50;;;;;;5127890;27;45356;-74
2023/08/25 07:23:47;;;;;;;3.28;2.30;;;27.30;56.60;;;;;;5125129;27;46375;-75
2023/08/25 07:26:14;;;;;;;4.72;1.83;;;27.30;56.40;;;;;;5126012;27;45578;-74
2023/08/25 07:28:41;;;;;;;4.55;2.25;;;27.30;56.40;;;;;;5122901;27;45393;-73
2023/08/25 07:31:08;;;;;;;2.45;2.22;;;27.30;57.30;;;;;;5127674;27;45265;-73
2023/08/25 07:33:35;;;;;;;3.17;1.98;;;27.20;58.30;;;;;;5126519;27;46698;-74
2023/08/25 07:36:03;;;;;;;3.28;2.15;;;27.20;58.30;;;;;;5127219;27;45310;-74
2023/08/25 07:38:30;;;;;;;3.58;2.40;;;27.20;58.20;;;;;;5127517;27;45333;-75
2023/08/25 07:40:58;;;;;;;4.07;2.05;;;27.20;58.20;;;;;;5127785;27;45404;-74
2023/08/25 07:43:25;;;;;;;3.13;2.13;;;27.20;58.00;;;;;;5127292;27;45420;-75
2023/08/25 07:45:53;;;;;;;3.08;1.88;;;27.20;57.80;;;;;;5127393;27;45268;-74
2023/08/25 07:48:20;;;;;;;4.07;2.30;;;27.20;57.80;;;;;;5127461;27;45365;-75
2023/08/25 07:50:47;;;;;;;3.28;2.00;;;27.20;57.70;;;;;;5127495;27;45483;-74
2023/08/25 07:53:14;;;;;;;5.53;1.95;;;27.20;57.80;;;;;;5127148;27;45302;-75
2023/08/25 07:55:40;;;;;;;3.28;2.20;;;27.20;57.50;;;;;;5126730;27;45298;-75
2023/08/25 07:58:09;;;;;;;5.40;2.17;;;27.20;57.40;;;;;;5127275;27;45141;-74
2023/08/25 08:00:36;;;;;;;3.30;2.20;;;27.20;57.40;;;;;;5127436;27;45471;-75
2023/08/25 08:03:04;;;;;;;4.88;2.03;;;27.20;57.30;;;;;;5127168;27;46595;-74
2023/08/25 08:05:31;;;;;;;4.60;2.15;;;27.20;57.20;;;;;;5126971;27;45289;-75
2023/08/25 08:07:58;;;;;;;3.90;2.00;;;27.20;57.30;;;;;;5127137;27;45431;-74
2023/08/25 08:10:25;;;;;;;5.95;1.80;;;27.20;57.20;;;;;;5127101;27;45354;-75
2023/08/25 08:12:52;;;;;;;2.83;2.47;;;27.20;57.20;;;;;;5126840;27;45466;-74
2023/08/25 08:15:21;;;;;;;2.10;1.90;;;27.20;57.00;;;;;;5126967;27;45165;-74
2023/08/25 08:17:48;;;;;;;2.78;2.10;;;27.20;57.10;;;;;;5129414;27;45371;-75
2023/08/25 08:20:14;;;;;;;2.53;1.73;;;27.20;57.00;;;;;;5129953;27;45298;-74
2023/08/25 08:22:41;;;;;;;4.35;2.08;;;27.20;57.40;;;;;;5130165;27;46390;-74
2023/08/25 08:25:10;;;;;;;3.42;1.90;;;27.20;57.20;;;;;;5130159;27;45267;-74
2023/08/25 08:27:37;;;;;;;2.33;1.80;;;27.20;57.20;;;;;;5129331;27;45356;-75
2023/08/25 08:30:04;;;;;;;1.95;1.75;;;27.20;57.30;;;;;;5126821;27;45411;-74
2023/08/25 08:32:33;;;;;;;1.80;1.70;;;27.20;57.30;;;;;;5130191;27;47379;-75
2023/08/25 08:35:00;;;;;;;2.50;1.83;;;27.20;57.40;;;;;;5130235;27;45273;-74
2023/08/25 08:37:27;;;;;;;2.60;1.80;;;27.20;57.20;;;;;;5130307;27;45327;-75
2023/08/25 08:39:54;;;;;;;1.90;1.70;;;27.20;57.20;;;;;;5130339;27;45447;-74
2023/08/25 08:42:20;;;;;;;3.78;1.90;;;27.20;57.30;;;;;;5129913;27;45278;-74
2023/08/25 08:44:47;;;;;;;2.55;2.22;;;27.20;57.30;;;;;;5129992;27;45288;-75
2023/08/25 08:47:15;;;;;;;2.70;1.90;;;27.20;57.20;;;;;;5129927;27;45106;-74
2023/08/25 08:49:44;;;;;;;1.50;1.40;;;27.20;56.90;;;;;;5128568;27;45254;-75
2023/08/25 08:52:11;;;;;;;2.97;1.98;;;27.20;57.20;;;;;;5128890;27;46403;-74
2023/08/25 08:54:38;;;;;;;2.28;1.90;;;27.20;57.50;;;;;;5130066;27;45525;-76
2023/08/25 08:57:05;;;;;;;1.83;1.70;;;27.20;57.10;;;;;;5129561;27;45303;-74
2023/08/25 08:59:33;;;;;;;1.90;1.80;;;27.20;56.80;;;;;;5130196;27;45273;-74
2023/08/25 09:02:00;;;;;;;1.95;1.70;;;27.20;56.80;;;;;;5129575;27;45377;-75
2023/08/25 09:04:28;;;;;;;2.72;1.90;;;27.20;56.90;;;;;;5129590;27;45307;-75
2023/08/25 09:06:56;;;;;;;2.75;2.55;;;27.20;56.80;;;;;;5110962;27;45249;-75
2023/08/25 09:09:23;;;;;;;3.08;1.70;;;27.20;56.70;;;;;;5109207;27;45561;-75
2023/08/25 09:11:50;;;;;;;2.20;2.00;;;27.20;56.70;;;;;;5108884;27;46374;-75
2023/08/25 09:14:23;;;;;;;1.92;1.83;;;27.20;56.60;;;;;;5125169;27;45344;-74
2023/08/25 09:16:50;;;;;;;2.05;1.70;;;27.20;56.80;;;;;;5129440;27;45306;-73
2023/08/25 09:19:17;;;;;;;1.65;1.55;;;27.20;56.60;;;;;;5129292;27;45374;-77
2023/08/25 09:21:45;;;;;;;1.80;1.70;;;27.20;56.70;;;;;;5129398;27;47352;-74
2023/08/25 09:24:17;;;;;;;2.65;1.70;;;27.20;56.60;;;;;;5120914;27;45263;-74
2023/08/25 09:26:44;;;;;;;5.10;2.00;;;27.30;56.60;;;;;;5108602;27;45334;-73
2023/08/25 09:29:11;;;;;;;5.80;2.30;;;27.30;56.60;;;;;;5108651;27;45251;-73
2023/08/25 09:31:38;;;;;;;3.58;2.20;;;27.30;57.80;;;;;;5119393;27;45278;-74
2023/08/25 09:34:06;;;;;;;2.92;2.53;;;27.30;58.10;;;;;;5129527;27;45537;-74
2023/08/25 09:36:33;;;;;;;3.80;2.08;;;27.30;58.20;;;;;;5128938;27;45487;-75
2023/08/25 09:39:00;;;;;;;2.60;2.40;;;27.30;58.70;;;;;;5129501;27;45379;-75
2023/08/25 09:41:29;;;;;;;3.88;2.50;;;27.30;59.00;;;;;;5128854;27;45301;-75
2023/08/25 09:43:59;;;;;;;4.50;2.35;;;27.30;59.30;;;;;;5129302;27;45366;-72
2023/08/25 09:46:29;;;;;;;3.08;2.47;;;27.30;58.90;;;;;;5119645;27;45286;-71
2023/08/25 09:49:01;;;;;;;6.22;2.85;;;27.40;59.10;;;;;;5125760;27;45465;-74
2023/08/25 09:51:30;;;;;;;3.90;2.55;;;27.40;59.20;;;;;;5118539;27;45563;-73
2023/08/25 09:53:58;;;;;;;5.60;2.80;;;27.40;59.00;;;;;;5128684;27;45350;-74
2023/08/25 09:56:25;;;;;;;5.10;3.08;;;27.40;59.20;;;;;;5128786;27;45317;-75
2023/08/25 09:58:53;;;;;;;5.43;2.78;;;27.40;59.10;;;;;;5127936;27;45418;-74
2023/08/25 10:01:20;;;;;;;3.00;2.72;;;27.40;58.90;;;;;;5121441;27;46418;-74
2023/08/25 10:03:47;;;;;;;3.13;2.67;;;27.40;58.90;;;;;;5125596;27;45456;-73
2023/08/25 10:06:13;;;;;;;8.43;2.70;;;27.50;58.80;;;;;;5129567;27;45457;-73
2023/08/25 10:08:41;;;;;;;4.38;2.80;;;27.50;58.70;;;;;;5129218;27;45371;-74
2023/08/25 10:11:08;;;;;;;4.30;2.67;;;27.50;58.30;;;;;;5128831;27;45651;-73
2023/08/25 10:13:35;;;;;;;4.75;2.35;;;27.50;58.60;;;;;;5128950;27;45318;-73
2023/08/25 10:16:04;;;;;;;3.42;2.90;;;27.50;57.80;;;;;;5128847;27;45303;-73
2023/08/25 10:18:31;;;;;;;4.70;2.75;;;27.50;57.50;;;;;;5128989;27;45265;-74
2023/08/25 10:20:59;;;;;;;3.17;2.63;;;27.60;57.60;;;;;;5128978;27;47440;-74
2023/08/25 10:23:26;;;;;;;4.30;2.70;;;27.60;57.40;;;;;;5126787;27;45306;-74
2023/08/25 10:25:53;;;;;;;6.20;2.55;;;27.50;57.10;;;;;;5108046;27;45460;-73
2023/08/25 10:28:19;;;;;;;5.03;2.15;;;27.50;57.10;;;;;;5108253;27;45266;-74
2023/08/25 10:30:46;;;;;;;8.80;2.85;;;27.60;57.10;;;;;;5107917;27;46407;-74
2023/08/25 10:33:15;;;;;;;3.20;2.35;;;27.60;57.00;;;;;;5108196;27;45272;-73
2023/08/25 10:35:44;;;;;;;5.40;2.80;;;27.60;56.90;;;;;;5108545;27;45300;-73
2023/08/25 10:38:34;;;;;;;3.30;2.35;;;27.60;56.80;;;;;;5107985;27;45556;-72
2023/08/25 10:41:12;;;;;;;5.38;2.63;;;27.60;56.70;;;;;;5107017;27;47315;-73
2023/08/25 10:43:38;;;;;;;5.82;2.53;;;27.60;56.60;;;;;;5107457;27;45282;-73
2023/08/25 10:46:06;;;;;;;5.97;2.80;;;27.60;56.50;;;;;;5107626;27;45349;-73
2023/08/25 10:48:35;;;;;;;3.47;2.40;;;27.60;56.40;;;;;;5108039;27;45309;-72
2023/08/25 10:51:06;;;;;;;3.35;2.67;;;27.60;56.30;;;;;;5106675;27;46398;-72
2023/08/25 10:53:37;;;;;;;11.07;2.70;;;27.70;56.20;;;;;;5106808;27;45248;-73
2023/08/25 10:56:15;;;;;;;5.53;2.20;;;27.70;55.90;;;;;;5107253;27;45281;-72
2023/08/25 10:58:41;;;;;;;5.72;2.70;;;27.80;55.90;;;;;;5107559;27;45492;-72
2023/08/25 11:01:10;;;;;;;3.97;2.40;;;27.70;55.90;;;;;;5107188;27;45291;-73
2023/08/25 11:04:04;;;;;;;4.93;2.30;;;27.70;56.00;;;;;;5107308;27;45401;-73
2023/08/25 11:06:39;;;;;;;3.83;2.50;;;27.70;55.90;;;;;;5106878;27;45276;-72
2023/08/25 11:09:05;;;;;;;3.83;2.50;;;27.80;56.50;;;;;;5107457;27;45378;-72
2023/08/25 11:11:35;;;;;;;3.40;2.20;;;27.80;56.00;;;;;;5107036;27;47304;-72
2023/08/25 11:14:02;;;;;;;3.45;2.30;;;27.80;55.90;;;;;;5107328;27;45414;-72
2023/08/25 11:16:29;;;;;;;5.47;2.78;;;27.80;55.90;;;;;;5105902;27;45379;-72
2023/08/25 11:18:57;;;;;;;3.42;2.38;;;27.80;55.90;;;;;;5117621;27;45663;-71
2023/08/25 11:21:25;;;;;;;3.67;2.53;;;27.80;55.90;;;;;;5113799;27;46502;-70
2023/08/25 11:23:51;;;;;;;4.30;2.15;;;27.90;55.90;;;;;;5109827;27;45224;-71
2023/08/25 11:26:18;;;;;;;4.30;2.67;;;27.90;55.70;;;;;;5117107;27;45256;-72
2023/08/25 11:28:47;;;;;;;4.53;2.42;;;27.90;55.80;;;;;;5120056;27;45409;-71
2023/08/25 11:31:14;;;;;;;2.67;2.30;;;27.90;55.60;;;;;;5125074;27;45354;-72
2023/08/25 11:33:41;;;;;;;4.00;2.60;;;27.90;55.70;;;;;;5118743;27;45483;-70
2023/08/25 11:36:15;;;;;;;3.08;2.45;;;27.90;55.60;;;;;;5120613;27;45511;-70
2023/08/25 11:38:42;;;;;;;2.28;2.08;;;27.90;55.50;;;;;;5114118;27;45358;-70
2023/08/25 11:41:10;;;;;;;6.18;2.33;;;27.90;55.50;;;;;;5120296;27;46284;-69
2023/08/25 11:43:38;;;;;;;5.38;2.33;;;27.90;55.60;;;;;;5113013;27;45478;-70
2023/08/25 11:46:06;;;;;;;6.88;2.35;;;27.90;55.90;;;;;;5113645;27;45465;-71
2023/08/25 11:48:33;;;;;;;2.30;2.10;;;27.90;56.00;;;;;;5123581;27;45466;-75
2023/08/25 11:51:00;;;;;;;3.28;2.83;;;27.90;55.80;;;;;;5117036;27;46694;-72
2023/08/25 11:53:29;;;;;;;2.63;2.28;;;27.90;55.80;;;;;;5118375;27;45453;-74
2023/08/25 11:56:03;;;;;;;3.75;2.08;;;28.00;56.10;;;;;;5119848;27;45474;-71
2023/08/25 11:58:31;;;;;;;7.03;2.28;;;28.00;55.70;;;;;;5119102;27;45219;-71
2023/08/25 12:01:03;;;;;;;2.75;2.22;;;28.00;55.40;;;;;;5126876;27;45474;-71
2023/08/25 12:03:30;;;;;;;5.32;2.15;;;28.10;55.20;;;;;;5126754;27;45314;-73
2023/08/25 12:05:56;;;;;;;4.93;2.10;;;28.20;55.00;;;;;;5130651;27;46007;-75
2023/08/25 12:08:24;;;;;;;2.28;2.08;;;28.20;54.40;;;;;;5130262;27;45236;-74
2023/08/25 12:10:54;;;;;;;3.50;2.05;;;28.30;53.70;;;;;;5125746;27;46450;-73
2023/08/25 12:13:25;;;;;;;7.85;1.92;;;28.40;53.80;;;;;;5120852;27;45448;-73
2023/08/25 12:15:56;;;;;;;2.15;1.70;;;28.50;53.70;;;;;;5118952;27;45510;-75
2023/08/25 12:18:23;;;;;;;3.45;2.20;;;28.60;53.40;;;;;;5120221;27;45406;-76
2023/08/25 12:20:50;;;;;;;6.28;2.17;;;28.60;53.40;;;;;;5127961;27;46265;-75
2023/08/25 12:23:17;;;;;;;2.38;1.90;;;28.60;54.00;;;;;;5126794;27;45472;-76
2023/08/25 12:25:44;;;;;;;3.17;2.10;;;28.70;53.90;;;;;;5129505;27;45247;-74
2023/08/25 12:28:13;;;;;;;14.75;2.78;;;28.70;53.50;;;;;;5128831;27;45213;-74
2023/08/25 12:30:40;;;;;;;4.90;2.35;;;28.70;53.70;;;;;;5122578;27;46723;-74
2023/08/25 12:33:06;;;;;;;7.57;2.22;;;28.70;53.40;;;;;;5127742;27;45436;-71
2023/08/25 12:35:33;;;;;;;8.90;2.42;;;28.80;53.50;;;;;;5127087;27;45381;-76
2023/08/25 12:38:00;;;;;;;6.20;2.08;;;28.90;54.70;;;;;;5119764;27;45540;-78
2023/08/25 12:40:27;;;;;;;5.28;2.38;;;29.00;55.30;;;;;;5126558;27;45354;-71
2023/08/25 12:42:55;;;;;;;6.85;2.35;;;29.10;54.80;;;;;;5126845;27;47222;-74
2023/08/25 12:45:23;;;;;;;4.32;2.15;;;29.20;55.90;;;;;;5129519;27;45361;-78
2023/08/25 12:47:51;;;;;;;5.05;2.20;;;29.30;54.90;;;;;;5125692;27;45488;-77
2023/08/25 12:50:18;;;;;;;3.72;2.10;;;29.40;54.20;;;;;;5124577;27;45493;-74